createdAt,value
2022-10-11T00:00:42.837Z,95.85
2022-10-11T00:03:09.589Z,96.39
2022-10-11T00:05:37.178Z,96.45
2022-10-11T00:08:05.887Z,96.29
2022-10-11T00:10:33.904Z,96.32
2022-10-11T00:13:00.801Z,96.21
2022-10-11T00:15:27.543Z,96.23
2022-10-11T00:17:54.155Z,96.49
2022-10-11T00:20:20.733Z,96.37
2022-10-11T00:22:47.426Z,96.61
2022-10-11T00:25:13.926Z,96.67
2022-10-11T00:27:40.555Z,96.47
2022-10-11T00:30:07.948Z,96.18
2022-10-11T00:32:37.559Z,96.53
2022-10-11T00:35:06.422Z,96.98
2022-10-11T00:37:34.627Z,96.63
2022-10-11T00:40:01.376Z,96.38
2022-10-11T00:42:28.046Z,96.89
2022-10-11T00:45:26.400Z,96.65
2022-10-11T00:47:54.837Z,97.41
2022-10-11T00:50:24.416Z,97.81
2022-10-11T00:52:56.014Z,97.90
2022-10-11T00:55:26.703Z,97.88
2022-10-11T00:57:55.122Z,98.50
2022-10-11T01:00:21.834Z,98.24
2022-10-11T01:02:49.090Z,98.57
2022-10-11T01:05:29.324Z,99.00
2022-10-11T01:07:58.949Z,99.34
2022-10-11T01:10:26.881Z,99.71
2022-10-11T01:13:12.510Z,99.00
2022-10-11T01:16:21.183Z,99.59
2022-10-11T01:19:15.680Z,98.84
2022-10-11T01:21:55.578Z,99.42
2022-10-11T01:24:44.857Z,99.25
2022-10-11T01:27:55.400Z,99.10
2022-10-11T01:30:25.210Z,98.73
2022-10-11T01:33:05.806Z,98.62
2022-10-11T01:35:41.960Z,98.23
2022-10-11T01:38:17.115Z,98.92
2022-10-11T01:40:58.965Z,98.38
2022-10-11T01:43:27.032Z,99.06
2022-10-11T01:45:57.362Z,98.45
2022-10-11T01:48:24.006Z,98.17
2022-10-11T01:50:53.326Z,97.71
2022-10-11T01:53:56.344Z,97.96
2022-10-11T01:56:50.197Z,97.91
2022-10-11T01:59:22.634Z,97.98
2022-10-11T02:02:07.454Z,97.92
2022-10-11T02:04:54.147Z,97.98
2022-10-11T02:07:26.220Z,97.44
2022-10-11T02:10:00.509Z,97.57
2022-10-11T02:12:40.785Z,97.16
2022-10-11T02:15:09.766Z,97.26
2022-10-11T02:17:47.684Z,97.16
2022-10-11T02:20:19.855Z,97.37
2022-10-11T02:22:49.980Z,96.88
2022-10-11T02:25:22.930Z,97.42
2022-10-11T02:27:53.125Z,97.55
2022-10-11T02:30:19.867Z,97.97
2022-10-11T02:32:47.864Z,97.66
2022-10-11T02:35:15.012Z,98.22
2022-10-11T02:38:02.810Z,98.23
2022-10-11T02:40:33.496Z,98.03
2022-10-11T02:43:05.645Z,98.43
2022-10-11T02:45:41.641Z,98.66
2022-10-11T02:48:10.288Z,98.82
2022-10-11T02:50:39.510Z,98.43
2022-10-11T02:53:06.656Z,98.45
2022-10-11T02:55:33.246Z,98.40
2022-10-11T02:58:00.640Z,98.52
2022-10-11T03:00:27.228Z,98.71
2022-10-11T03:02:53.810Z,98.65
2022-10-11T03:05:20.478Z,98.30
2022-10-11T03:07:47.079Z,98.38
2022-10-11T03:10:13.652Z,98.37
2022-10-11T03:12:40.076Z,98.04
2022-10-11T03:15:07.125Z,98.18
2022-10-11T03:17:37.278Z,98.22
2022-10-11T03:20:07.233Z,99.80
2022-10-11T03:22:33.744Z,100.00
2022-10-11T03:25:03.971Z,100.00
2022-10-11T03:27:30.751Z,100.00
2022-10-11T03:29:57.811Z,100.00
2022-10-11T03:32:24.423Z,100.00
2022-10-11T03:34:50.904Z,100.00
2022-10-11T03:37:17.576Z,100.00
2022-10-11T03:39:45.538Z,100.00
2022-10-11T03:42:12.992Z,100.00
2022-10-11T03:44:39.570Z,100.00
2022-10-11T03:47:06.224Z,100.00
2022-10-11T03:49:32.944Z,100.00
2022-10-11T03:52:00.346Z,100.00
2022-10-11T03:54:27.138Z,99.69
2022-10-11T03:56:53.674Z,99.80
2022-10-11T03:59:30.656Z,100.00
2022-10-11T04:01:57.317Z,100.00
2022-10-11T04:04:27.393Z,99.61
2022-10-11T04:06:54.021Z,99.50
2022-10-11T04:09:20.600Z,99.12
2022-10-11T04:11:47.278Z,99.08
2022-10-11T04:14:13.989Z,99.27
2022-10-11T04:16:41.170Z,100.00
2022-10-11T04:19:09.950Z,100.00
2022-10-11T04:21:36.986Z,99.37
2022-10-11T04:24:03.791Z,99.46
2022-10-11T04:26:36.199Z,99.26
2022-10-11T04:29:02.742Z,100.00
2022-10-11T04:31:29.476Z,100.00
2022-10-11T04:33:57.062Z,100.00
2022-10-11T04:36:24.288Z,99.90
2022-10-11T04:38:50.994Z,100.00
2022-10-11T04:41:17.516Z,99.65
2022-10-11T04:43:44.004Z,99.58
2022-10-11T04:46:11.585Z,99.61
2022-10-11T04:48:38.639Z,99.57
2022-10-11T04:51:05.729Z,99.87
2022-10-11T04:53:32.411Z,99.86
2022-10-11T04:56:01.815Z,99.56
2022-10-11T04:58:29.774Z,99.36
2022-10-11T05:00:57.095Z,99.16
2022-10-11T05:03:25.519Z,99.11
2022-10-11T05:05:53.167Z,99.17
2022-10-11T05:08:20.589Z,99.24
2022-10-11T05:10:57.837Z,99.32
2022-10-11T05:13:25.235Z,99.78
2022-10-11T05:15:51.951Z,99.22
2022-10-11T05:18:18.713Z,99.49
2022-10-11T05:20:45.305Z,99.26
2022-10-11T05:23:12.534Z,99.36
2022-10-11T05:25:39.146Z,99.57
2022-10-11T05:28:06.191Z,99.61
2022-10-11T05:30:33.116Z,99.48
2022-10-11T05:33:00.101Z,99.98
2022-10-11T05:35:26.648Z,100.00
2022-10-11T05:37:53.153Z,100.00
2022-10-11T05:40:19.668Z,100.00
2022-10-11T05:42:46.131Z,100.00
2022-10-11T05:45:12.578Z,100.00
2022-10-11T05:47:39.103Z,100.00
2022-10-11T05:50:06.111Z,99.94
2022-10-11T05:52:32.662Z,100.00
2022-10-11T05:54:59.141Z,99.65
2022-10-11T05:57:25.650Z,99.72
2022-10-11T05:59:52.217Z,99.70
2022-10-11T06:02:23.883Z,99.35
2022-10-11T06:04:50.559Z,99.11
2022-10-11T06:07:17.142Z,99.34
2022-10-11T06:09:43.539Z,99.66
2022-10-11T06:12:10.091Z,99.92
2022-10-11T06:14:36.783Z,100.00
2022-10-11T06:17:03.400Z,99.61
2022-10-11T06:19:29.887Z,99.26
2022-10-11T06:21:56.491Z,99.05
2022-10-11T06:24:23.251Z,98.31
2022-10-11T06:26:49.712Z,97.94
2022-10-11T06:29:16.262Z,98.27
2022-10-11T06:31:43.077Z,98.73
2022-10-11T06:34:09.656Z,98.39
2022-10-11T06:36:36.422Z,98.23
2022-10-11T06:39:03.973Z,97.88
2022-10-11T06:41:35.124Z,97.61
2022-10-11T06:44:01.623Z,98.29
2022-10-11T06:46:28.279Z,98.92
2022-10-11T06:48:57.107Z,98.84
2022-10-11T06:51:24.469Z,97.72
2022-10-11T06:53:52.555Z,97.83
2022-10-11T06:56:19.723Z,97.93
2022-10-11T06:58:46.633Z,97.53
2022-10-11T07:01:16.297Z,96.80
2022-10-11T07:03:42.932Z,96.68
2022-10-11T07:06:12.885Z,96.86
2022-10-11T07:08:40.019Z,97.01
2022-10-11T07:11:12.845Z,97.14
2022-10-11T07:13:40.562Z,96.73
2022-10-11T07:16:10.411Z,96.66
2022-10-11T07:18:37.188Z,97.30
2022-10-11T07:21:08.878Z,97.20
2022-10-11T07:23:35.483Z,97.17
2022-10-11T07:26:02.348Z,97.27
2022-10-11T07:28:32.199Z,96.51
2022-10-11T07:30:59.279Z,96.53
2022-10-11T07:33:25.888Z,95.05
2022-10-11T07:35:56.912Z,95.18
2022-10-11T07:38:23.391Z,95.02
2022-10-11T07:40:49.962Z,95.26
2022-10-11T07:43:16.553Z,95.62
2022-10-11T07:45:45.426Z,94.61
2022-10-11T07:48:11.935Z,94.70
2022-10-11T07:50:38.803Z,93.76
2022-10-11T07:53:05.456Z,94.21
2022-10-11T07:55:41.048Z,93.80
2022-10-11T07:58:12.813Z,92.27
2022-10-11T08:00:42.660Z,92.03
2022-10-11T08:03:10.257Z,91.40
2022-10-11T08:05:38.694Z,90.69
2022-10-11T08:08:05.271Z,89.69
2022-10-11T08:10:37.420Z,89.20
2022-10-11T08:13:04.513Z,89.30
2022-10-11T08:15:31.272Z,89.40
2022-10-11T08:17:57.936Z,88.41
2022-10-11T08:20:24.511Z,86.76
2022-10-11T08:22:51.002Z,86.40
2022-10-11T08:25:17.599Z,85.56
2022-10-11T08:27:44.134Z,84.00
2022-10-11T08:30:11.261Z,83.30
2022-10-11T08:32:37.986Z,83.04
2022-10-11T08:35:06.077Z,80.90
2022-10-11T08:37:32.539Z,79.65
2022-10-11T08:39:59.299Z,79.95
2022-10-11T08:42:48.170Z,80.88
2022-10-11T08:45:43.139Z,80.14
2022-10-11T08:48:23.793Z,80.96
2022-10-11T08:50:52.313Z,80.50
2022-10-11T08:53:43.178Z,81.52
2022-10-11T08:56:12.752Z,80.08
2022-10-11T08:59:12.355Z,79.69
2022-10-11T09:01:46.236Z,79.04
2022-10-11T09:04:15.933Z,79.13
2022-10-11T09:07:23.532Z,77.21
2022-10-11T09:10:02.242Z,77.77
2022-10-11T09:12:39.826Z,77.78
2022-10-11T09:15:46.899Z,76.96
2022-10-11T09:18:54.828Z,76.99
2022-10-11T09:21:44.905Z,73.92
2022-10-11T09:24:28.484Z,75.29
2022-10-11T09:27:03.851Z,74.90
2022-10-11T09:30:07.756Z,74.96
2022-10-11T09:32:40.167Z,74.61
2022-10-11T09:35:17.713Z,73.53
2022-10-11T09:38:05.193Z,73.25
2022-10-11T09:40:45.191Z,73.68
2022-10-11T09:43:12.244Z,72.39
2022-10-11T09:45:49.190Z,73.72
2022-10-11T09:49:06.519Z,73.64
2022-10-11T09:56:10.334Z,72.52
2022-10-11T09:59:37.359Z,72.58
2022-10-11T10:02:31.542Z,72.33
2022-10-11T10:05:50.812Z,71.32
2022-10-11T10:12:59.611Z,70.69
2022-10-11T10:26:05.333Z,67.44
2022-10-11T10:32:09.144Z,68.51
2022-10-11T10:46:26.547Z,70.43
2022-10-11T11:09:11.313Z,67.36
2022-10-11T11:16:09.639Z,64.52
2022-10-11T11:19:14.804Z,62.81
2022-10-11T11:22:17.784Z,62.89
2022-10-11T11:25:09.294Z,62.95
2022-10-11T11:28:44.372Z,63.09
2022-10-11T11:31:36.113Z,65.05
2022-10-11T11:34:07.654Z,66.69
2022-10-11T11:36:51.674Z,69.65
2022-10-11T11:39:31.379Z,69.57
2022-10-11T11:42:16.483Z,69.52
2022-10-11T11:44:50.994Z,70.06
2022-10-11T11:47:32.565Z,69.06
2022-10-11T11:50:15.343Z,68.22
2022-10-11T11:52:51.433Z,67.86
2022-10-11T11:55:51.357Z,67.75
2022-10-11T11:58:59.015Z,68.17
2022-10-11T12:01:43.236Z,67.40
2022-10-11T12:04:28.630Z,68.15
2022-10-11T12:10:53.509Z,68.53
2022-10-11T12:13:37.097Z,68.31
2022-10-11T12:16:14.998Z,67.88
2022-10-11T12:19:01.996Z,68.35
2022-10-11T12:21:44.237Z,67.77
2022-10-11T12:24:26.795Z,66.78
2022-10-11T12:27:02.457Z,66.41
2022-10-11T12:29:53.019Z,67.54
2022-10-11T12:32:28.645Z,68.40
2022-10-11T12:35:39.281Z,66.97
2022-10-11T12:38:23.925Z,67.96
2022-10-11T12:40:54.812Z,66.37
2022-10-11T12:43:44.677Z,64.96
2022-10-11T12:46:29.713Z,64.42
2022-10-11T12:49:34.147Z,64.87
2022-10-11T12:52:41.449Z,64.42
2022-10-11T12:58:46.489Z,62.76
2022-10-11T13:01:17.654Z,62.42
2022-10-11T13:03:57.848Z,61.92
2022-10-11T13:06:29.459Z,61.78
2022-10-11T13:09:21.315Z,60.89
2022-10-11T13:11:56.554Z,61.37
2022-10-11T13:14:26.562Z,61.58
2022-10-11T13:17:01.171Z,61.66
2022-10-11T13:19:32.252Z,62.62
2022-10-11T13:22:20.892Z,61.95
2022-10-11T13:24:52.508Z,62.99
2022-10-11T13:27:27.316Z,62.31
2022-10-11T13:30:03.566Z,61.90
2022-10-11T13:32:47.486Z,61.75
2022-10-11T13:38:27.758Z,62.18
2022-10-11T13:40:59.901Z,62.76
2022-10-11T13:43:37.151Z,63.20
2022-10-11T13:46:30.873Z,62.62
2022-10-11T13:48:59.647Z,63.42
2022-10-11T13:51:38.775Z,63.14
2022-10-11T13:54:11.756Z,63.92
2022-10-11T13:56:53.256Z,64.01
2022-10-11T13:59:28.335Z,63.88
2022-10-11T14:02:04.625Z,63.76
2022-10-11T14:04:59.089Z,64.02
2022-10-11T14:07:41.368Z,64.39
2022-10-11T14:10:28.064Z,63.88
2022-10-11T14:13:30.831Z,64.28
2022-10-11T14:16:16.299Z,64.72
2022-10-11T14:19:12.443Z,64.64
2022-10-11T14:22:29.022Z,64.52
2022-10-11T14:24:47.196Z,64.23
2022-10-11T14:27:20.892Z,64.43
2022-10-11T14:33:44.054Z,64.32
2022-10-11T14:36:11.108Z,64.29
2022-10-11T14:38:44.058Z,64.41
2022-10-11T14:41:19.297Z,64.32
2022-10-11T14:44:09.856Z,64.66
2022-10-11T14:47:02.063Z,64.48
2022-10-11T14:52:57.191Z,64.79
2022-10-11T14:55:24.639Z,64.79
2022-10-11T15:16:33.442Z,66.30
2022-10-11T15:19:38.423Z,66.68
2022-10-11T15:27:39.239Z,65.87
2022-10-11T15:33:24.461Z,66.61
2022-10-11T15:36:08.320Z,66.81
2022-10-11T15:38:43.071Z,67.13
2022-10-11T15:41:20.378Z,67.45
2022-10-11T15:44:11.098Z,67.55
2022-10-11T15:46:45.912Z,67.70
2022-10-11T15:49:20.426Z,67.71
2022-10-11T15:52:08.616Z,68.12
2022-10-11T15:54:37.989Z,68.56
2022-10-11T15:57:05.012Z,68.43
2022-10-11T15:59:55.146Z,68.74
2022-10-11T16:02:25.164Z,69.17
2022-10-11T16:04:59.861Z,69.50
2022-10-11T16:07:35.644Z,69.37
2022-10-11T16:10:06.406Z,69.64
2022-10-11T16:12:36.243Z,70.10
2022-10-11T16:15:03.677Z,70.62
2022-10-11T16:17:33.252Z,70.83
2022-10-11T16:20:03.060Z,70.91
2022-10-11T16:23:01.116Z,70.84
2022-10-11T16:25:28.050Z,71.34
2022-10-11T16:27:54.866Z,71.84
2022-10-11T16:30:24.706Z,71.79
2022-10-11T16:32:56.048Z,71.74
2022-10-11T16:35:32.417Z,71.89
2022-10-11T16:38:02.315Z,71.83
2022-10-11T16:40:32.135Z,71.99
2022-10-11T16:43:09.427Z,72.04
2022-10-11T16:45:42.934Z,71.77
2022-10-11T16:48:17.661Z,72.37
2022-10-11T16:50:44.638Z,71.88
2022-10-11T16:53:11.637Z,72.93
2022-10-11T16:55:52.641Z,72.58
2022-10-11T16:58:27.093Z,72.79
2022-10-11T17:00:54.025Z,73.08
2022-10-11T17:03:25.644Z,73.26
2022-10-11T17:05:59.872Z,73.34
2022-10-11T17:08:26.903Z,73.45
2022-10-11T17:10:57.780Z,74.32
2022-10-11T17:13:24.960Z,74.50
2022-10-11T17:15:58.004Z,74.51
2022-10-11T17:18:25.138Z,74.69
2022-10-11T17:21:02.356Z,74.43
2022-10-11T17:23:44.058Z,74.41
2022-10-11T17:26:16.012Z,74.38
2022-10-11T17:28:46.173Z,74.83
2022-10-11T17:31:21.770Z,74.74
2022-10-11T17:33:54.457Z,74.95
2022-10-11T17:36:50.824Z,74.53
2022-10-11T17:39:25.493Z,74.36
2022-10-11T17:41:54.343Z,74.87
2022-10-11T17:44:47.433Z,74.83
2022-10-11T17:47:22.091Z,74.46
2022-10-11T17:49:52.358Z,74.55
2022-10-11T17:52:19.594Z,74.45
2022-10-11T17:54:49.232Z,74.42
2022-10-11T17:57:16.157Z,74.33
2022-10-11T17:59:46.502Z,74.53
2022-10-11T18:02:16.046Z,74.41
2022-10-11T18:04:47.146Z,74.40
2022-10-11T18:07:19.310Z,74.81
2022-10-11T18:09:46.341Z,74.72
2022-10-11T18:12:15.335Z,74.37
2022-10-11T18:14:45.222Z,74.59
2022-10-11T18:17:12.189Z,74.24
2022-10-11T18:19:39.175Z,74.10
2022-10-11T18:22:07.249Z,74.30
2022-10-11T18:24:34.562Z,74.46
2022-10-11T18:27:04.323Z,73.94
2022-10-11T18:29:35.718Z,74.53
2022-10-11T18:32:02.694Z,74.01
2022-10-11T18:34:30.869Z,73.94
2022-10-11T18:37:03.425Z,74.20
2022-10-11T18:39:32.182Z,74.02
2022-10-11T18:41:59.778Z,74.72
2022-10-11T18:44:32.222Z,74.90
2022-10-11T18:47:01.435Z,73.92
2022-10-11T18:49:30.684Z,74.28
2022-10-11T18:51:57.673Z,75.19
2022-10-11T18:54:24.591Z,74.81
2022-10-11T18:56:51.520Z,74.54
2022-10-11T18:59:31.212Z,74.40
2022-10-11T19:02:00.941Z,74.49
2022-10-11T19:04:28.684Z,74.59
2022-10-11T19:06:55.592Z,74.74
2022-10-11T19:09:24.635Z,74.50
2022-10-11T19:11:56.484Z,74.74
2022-10-11T19:14:33.379Z,74.62
2022-10-11T19:17:09.340Z,75.09
2022-10-11T19:19:47.741Z,76.25
2022-10-11T19:22:14.958Z,75.71
2022-10-11T19:24:46.397Z,76.44
2022-10-11T19:27:13.526Z,76.66
2022-10-11T19:29:40.454Z,76.70
2022-10-11T19:32:07.521Z,76.72
2022-10-11T19:34:34.361Z,76.97
2022-10-11T19:37:04.376Z,77.08
2022-10-11T19:39:31.700Z,77.25
2022-10-11T19:42:02.680Z,76.85
2022-10-11T19:44:31.796Z,77.03
2022-10-11T19:47:06.422Z,76.74
2022-10-11T19:49:33.962Z,76.74
2022-10-11T19:52:03.737Z,77.61
2022-10-11T19:54:30.529Z,77.46
2022-10-11T19:57:03.195Z,77.59
2022-10-11T19:59:32.011Z,77.43
2022-10-11T20:02:08.545Z,76.88
2022-10-11T20:04:51.954Z,77.08
2022-10-11T20:07:19.342Z,76.93
2022-10-11T20:09:51.943Z,77.08
2022-10-11T20:12:18.728Z,76.92
2022-10-11T20:14:45.337Z,77.24
2022-10-11T20:17:14.236Z,77.78
2022-10-11T20:19:41.084Z,77.67
2022-10-11T20:22:24.006Z,77.35
2022-10-11T20:24:53.219Z,77.66
2022-10-11T20:27:19.992Z,77.52
2022-10-11T20:29:50.056Z,78.06
2022-10-11T20:32:25.465Z,77.58
2022-10-11T20:34:52.095Z,77.72
2022-10-11T20:37:23.295Z,77.89
2022-10-11T20:39:52.171Z,77.79
2022-10-11T20:42:18.815Z,77.88
2022-10-11T20:44:47.603Z,78.26
2022-10-11T20:47:14.165Z,78.46
2022-10-11T20:49:43.793Z,78.17
2022-10-11T20:52:18.993Z,78.60
2022-10-11T20:54:45.586Z,78.64
2022-10-11T20:57:15.336Z,78.56
2022-10-11T20:59:44.719Z,78.03
2022-10-11T21:02:16.652Z,78.35
2022-10-11T21:04:46.000Z,78.40
2022-10-11T21:07:15.205Z,78.56
2022-10-11T21:09:41.820Z,78.52
2022-10-11T21:12:08.560Z,78.50
2022-10-11T21:14:40.524Z,79.07
2022-10-11T21:17:07.379Z,78.67
2022-10-11T21:19:59.851Z,78.74
2022-10-11T21:22:26.550Z,78.45
2022-10-11T21:24:55.498Z,78.37
2022-10-11T21:27:22.389Z,78.69
2022-10-11T21:29:49.239Z,78.34
2022-10-11T21:32:18.061Z,78.29
2022-10-11T21:34:45.206Z,78.21
2022-10-11T21:37:12.071Z,78.18
2022-10-11T21:41:36.201Z,78.43
2022-10-11T21:47:26.437Z,78.44
2022-10-11T21:49:58.331Z,78.18
2022-10-11T21:55:36.681Z,78.98
2022-10-11T21:58:06.784Z,79.79
2022-10-11T22:00:34.907Z,80.16
2022-10-11T22:03:01.778Z,79.34
2022-10-11T22:05:29.842Z,79.16
2022-10-11T22:08:01.578Z,79.51
2022-10-11T22:10:28.441Z,79.17
2022-10-11T22:13:04.660Z,79.42
2022-10-11T22:15:42.598Z,79.26
2022-10-11T22:18:23.266Z,79.17
2022-10-11T22:20:55.733Z,79.68
2022-10-11T22:23:32.835Z,79.49
2022-10-11T22:26:12.871Z,79.49
2022-10-11T22:28:41.472Z,80.40
2022-10-11T22:31:35.125Z,81.00
2022-10-11T22:34:39.761Z,80.56
2022-10-11T22:37:06.608Z,80.39
2022-10-11T22:39:33.373Z,80.47
2022-10-11T22:42:02.628Z,80.09
2022-10-11T22:44:32.427Z,80.16
2022-10-11T22:46:59.290Z,80.21
2022-10-11T22:49:26.886Z,80.21
2022-10-11T22:52:01.997Z,80.52
2022-10-11T22:54:31.810Z,80.62
2022-10-11T22:56:59.486Z,80.65
2022-10-11T22:59:26.298Z,80.82
2022-10-11T23:01:55.831Z,81.07
2022-10-11T23:04:22.506Z,81.11
2022-10-11T23:06:49.589Z,80.39
2022-10-11T23:09:16.552Z,80.69
2022-10-11T23:11:45.873Z,80.16
2022-10-11T23:14:12.891Z,80.74
2022-10-11T23:16:39.961Z,80.75
2022-10-11T23:19:08.921Z,81.58
2022-10-11T23:21:40.490Z,80.49
2022-10-11T23:24:11.046Z,80.62
2022-10-11T23:26:48.408Z,80.72
2022-10-11T23:29:17.818Z,80.59
2022-10-11T23:31:47.909Z,80.71
2022-10-11T23:34:18.044Z,80.92
2022-10-11T23:37:08.660Z,80.31
2022-10-11T23:39:41.024Z,81.08
2022-10-11T23:42:13.360Z,81.09
2022-10-11T23:44:48.059Z,80.94
2022-10-11T23:47:26.545Z,81.02
2022-10-11T23:50:16.633Z,80.80
2022-10-11T23:52:49.930Z,80.52
2022-10-11T23:55:17.040Z,80.59
2022-10-11T23:57:54.263Z,80.43
